Mount Airy, Louisiana
Current Conditions -  °F | °C
As of 11:55 AM on Sunday 21 Dec 2014 (Local Time) from K1L0 Reporting Station
Overcast Overcast  
Wind Chill: 57°   Ceiling: 1100
Heat Index: 57°   Visibility: 10mi
Dew Point: 50°   Wind: 0mph
Humidity: 77%   Direction: NA
Pressure: 30.09"   Gusts: NA
Location:  30.05°N, 90.64°W
Report Text: K1L0 211755Z AUTO 00000KT 10SM OVC011 14/10 A3009 RMK AO2 P0001 60003 T01400100 10142 20113
Loading
Personal Weather Stations






























Interactive Weather Map New forecast layout! Learn more

10-Day Weather Forecast

Advertisements
Track Severe Weather on mobile